CFG109 EDDF-LFMN
Flight info
| Callsign | CFG109 |
|---|---|
| Flight time | 1h 18m |
| Altitude | 37000 |
| Route | ANEKI2L/18 ANEKI Y163 NATOR DCT TRA DCT RIPUS DCT GERSA DCT SOSON DCT ODINA DCT ENOBA/N0379F190 Z185 BORDI |
| Aircraft | A320/M-SDE3FGHIRWY/LB1 |
Departure
| Time | 2026-04-15 09:29 |
|---|---|
| Airport | Frankfurt Main Airport (EDDF) |
Arrival
| Time | 2026-04-15 10:47 |
|---|---|
| Airport | Nice-Côte d'Azur Airport (LFMN) |
| Time | Latitude | Longitude | Altitude | Speed | Heading |
|---|---|---|---|---|---|
| 2026-04-15 08:46 | 50.04698 | 8.57094 | 364 ft | 0 kts | 115° |
| 2026-04-15 09:12 | 50.04697 | 8.57097 | 356 ft | 0 kts | 115° |
| 2026-04-15 09:12 | 50.04696 | 8.57101 | 362 ft | 0 kts | 115° |
| 2026-04-15 09:17 | 50.04701 | 8.57085 | 356 ft | 4 kts | 115° |
| 2026-04-15 09:17 | 50.04712 | 8.57047 | 358 ft | 4 kts | 116° |
| 2026-04-15 09:18 | 50.04725 | 8.57015 | 360 ft | 4 kts | 146° |
| 2026-04-15 09:18 | 50.04748 | 8.57005 | 358 ft | 4 kts | 194° |
| 2026-04-15 09:18 | 50.04772 | 8.57019 | 361 ft | 2 kts | 205° |
| 2026-04-15 09:18 | 50.04774 | 8.57020 | 360 ft | 0 kts | 205° |
| 2026-04-15 09:21 | 50.04758 | 8.57009 | 359 ft | 12 kts | 205° |
| 2026-04-15 09:21 | 50.04658 | 8.56938 | 361 ft | 16 kts | 205° |
| 2026-04-15 09:21 | 50.04562 | 8.56895 | 361 ft | 12 kts | 193° |
| 2026-04-15 09:21 | 50.04490 | 8.56868 | 359 ft | 10 kts | 195° |
| 2026-04-15 09:22 | 50.04439 | 8.56775 | 359 ft | 14 kts | 248° |
| 2026-04-15 09:22 | 50.04406 | 8.56637 | 360 ft | 13 kts | 249° |
| 2026-04-15 09:22 | 50.04366 | 8.56472 | 361 ft | 18 kts | 249° |
| 2026-04-15 09:22 | 50.04323 | 8.56292 | 360 ft | 17 kts | 250° |
| 2026-04-15 09:23 | 50.04283 | 8.56123 | 359 ft | 16 kts | 249° |
| 2026-04-15 09:23 | 50.04242 | 8.55951 | 355 ft | 20 kts | 250° |
| 2026-04-15 09:23 | 50.04185 | 8.55710 | 358 ft | 25 kts | 249° |
| 2026-04-15 09:23 | 50.04131 | 8.55490 | 354 ft | 20 kts | 250° |
| 2026-04-15 09:24 | 50.04084 | 8.55284 | 355 ft | 19 kts | 250° |
| 2026-04-15 09:24 | 50.04039 | 8.55105 | 354 ft | 17 kts | 250° |
| 2026-04-15 09:24 | 50.04000 | 8.54940 | 356 ft | 16 kts | 249° |
| 2026-04-15 09:24 | 50.03962 | 8.54779 | 354 ft | 16 kts | 251° |
| 2026-04-15 09:25 | 50.03922 | 8.54616 | 356 ft | 16 kts | 250° |
| 2026-04-15 09:25 | 50.03881 | 8.54443 | 347 ft | 21 kts | 249° |
| 2026-04-15 09:25 | 50.03807 | 8.54248 | 347 ft | 21 kts | 240° |
| 2026-04-15 09:25 | 50.03756 | 8.54039 | 347 ft | 21 kts | 250° |
| 2026-04-15 09:26 | 50.03703 | 8.53821 | 346 ft | 22 kts | 249° |
| 2026-04-15 09:26 | 50.03647 | 8.53587 | 348 ft | 22 kts | 246° |
| 2026-04-15 09:26 | 50.03590 | 8.53361 | 336 ft | 23 kts | 249° |
| 2026-04-15 09:26 | 50.03533 | 8.53122 | 335 ft | 25 kts | 249° |
| 2026-04-15 09:27 | 50.03467 | 8.52853 | 333 ft | 27 kts | 247° |
| 2026-04-15 09:27 | 50.03402 | 8.52630 | 335 ft | 18 kts | 233° |
| 2026-04-15 09:27 | 50.03292 | 8.52596 | 332 ft | 16 kts | 177° |
| 2026-04-15 09:27 | 50.03187 | 8.52595 | 335 ft | 14 kts | 181° |
| 2026-04-15 09:28 | 50.03013 | 8.52598 | 333 ft | 55 kts | 179° |
| 2026-04-15 09:28 | 50.02603 | 8.52602 | 335 ft | 107 kts | 180° |
| 2026-04-15 09:28 | 50.01696 | 8.52612 | 333 ft | 161 kts | 180° |
| 2026-04-15 09:28 | 50.00461 | 8.52608 | 636 ft | 183 kts | 181° |
| 2026-04-15 09:29 | 49.98809 | 8.52640 | 1681 ft | 182 kts | 165° |
| 2026-04-15 09:29 | 49.97555 | 8.53040 | 2426 ft | 186 kts | 172° |
| 2026-04-15 09:29 | 49.96658 | 8.53142 | 2688 ft | 201 kts | 175° |
| 2026-04-15 09:29 | 49.94629 | 8.53230 | 3340 ft | 226 kts | 176° |
| 2026-04-15 09:30 | 49.93071 | 8.53279 | 4236 ft | 229 kts | 177° |
| 2026-04-15 09:30 | 49.91465 | 8.53338 | 5156 ft | 231 kts | 177° |
| 2026-04-15 09:30 | 49.89848 | 8.53412 | 6047 ft | 234 kts | 177° |
| 2026-04-15 09:30 | 49.88212 | 8.53501 | 6922 ft | 236 kts | 178° |
| 2026-04-15 09:31 | 49.86561 | 8.53599 | 7754 ft | 239 kts | 178° |
| 2026-04-15 09:31 | 49.84889 | 8.53593 | 8580 ft | 242 kts | 180° |
| 2026-04-15 09:31 | 49.83136 | 8.53609 | 9130 ft | 260 kts | 181° |
| 2026-04-15 09:31 | 49.81898 | 8.53601 | 9635 ft | 265 kts | 179° |
| 2026-04-15 09:32 | 49.79508 | 8.53795 | 10964 ft | 258 kts | 177° |
| 2026-04-15 09:32 | 49.77706 | 8.53922 | 11751 ft | 261 kts | 183° |
| 2026-04-15 09:32 | 49.76338 | 8.53833 | 12012 ft | 278 kts | 184° |
| 2026-04-15 09:32 | 49.74442 | 8.53646 | 12283 ft | 300 kts | 185° |
| 2026-04-15 09:33 | 49.72283 | 8.53387 | 12541 ft | 323 kts | 186° |
| 2026-04-15 09:33 | 49.69961 | 8.53082 | 12795 ft | 345 kts | 186° |
| 2026-04-15 09:33 | 49.67537 | 8.52752 | 13388 ft | 353 kts | 186° |
| 2026-04-15 09:33 | 49.65079 | 8.52417 | 14106 ft | 358 kts | 186° |
| 2026-04-15 09:34 | 49.62570 | 8.52080 | 14725 ft | 363 kts | 186° |
| 2026-04-15 09:34 | 49.60001 | 8.51743 | 15368 ft | 368 kts | 185° |
| 2026-04-15 09:34 | 49.57433 | 8.51406 | 16006 ft | 373 kts | 185° |
| 2026-04-15 09:34 | 49.54793 | 8.51059 | 16642 ft | 377 kts | 185° |
| 2026-04-15 09:35 | 49.52205 | 8.50718 | 17259 ft | 381 kts | 185° |
| 2026-04-15 09:35 | 49.49540 | 8.50367 | 17877 ft | 386 kts | 185° |
| 2026-04-15 09:35 | 49.46812 | 8.50008 | 18504 ft | 390 kts | 185° |
| 2026-04-15 09:35 | 49.44091 | 8.49652 | 19043 ft | 395 kts | 185° |
| 2026-04-15 09:36 | 49.41033 | 8.49257 | 19653 ft | 399 kts | 185° |
| 2026-04-15 09:36 | 49.38574 | 8.48939 | 20160 ft | 402 kts | 185° |
| 2026-04-15 09:36 | 49.35769 | 8.48576 | 20730 ft | 405 kts | 185° |
| 2026-04-15 09:36 | 49.32954 | 8.48209 | 21295 ft | 409 kts | 185° |
| 2026-04-15 09:37 | 49.30056 | 8.47828 | 21870 ft | 412 kts | 185° |
| 2026-04-15 09:37 | 49.27177 | 8.47448 | 22411 ft | 416 kts | 185° |
| 2026-04-15 09:37 | 49.24304 | 8.47071 | 22925 ft | 419 kts | 185° |
| 2026-04-15 09:37 | 49.21393 | 8.46693 | 23413 ft | 422 kts | 185° |
| 2026-04-15 09:38 | 49.18397 | 8.46306 | 23872 ft | 427 kts | 185° |
| 2026-04-15 09:38 | 49.15437 | 8.45922 | 24261 ft | 430 kts | 185° |
| 2026-04-15 09:38 | 49.12439 | 8.45531 | 24631 ft | 434 kts | 185° |
| 2026-04-15 09:38 | 49.09418 | 8.45143 | 24996 ft | 438 kts | 185° |
| 2026-04-15 09:39 | 49.06384 | 8.44685 | 25347 ft | 441 kts | 189° |
| 2026-04-15 09:39 | 49.03372 | 8.43707 | 25691 ft | 444 kts | 194° |
| 2026-04-15 09:39 | 49.00351 | 8.42637 | 26032 ft | 447 kts | 194° |
| 2026-04-15 09:39 | 48.97303 | 8.41572 | 26363 ft | 451 kts | 194° |
| 2026-04-15 09:40 | 48.94231 | 8.40508 | 26698 ft | 455 kts | 194° |
| 2026-04-15 09:40 | 48.91130 | 8.39438 | 27049 ft | 458 kts | 194° |
| 2026-04-15 09:40 | 48.88010 | 8.38362 | 27398 ft | 462 kts | 194° |
| 2026-04-15 09:40 | 48.84829 | 8.37265 | 27733 ft | 465 kts | 194° |
| 2026-04-15 09:41 | 48.81659 | 8.36174 | 28048 ft | 468 kts | 194° |
| 2026-04-15 09:41 | 48.78476 | 8.35078 | 28365 ft | 471 kts | 194° |
| 2026-04-15 09:41 | 48.75271 | 8.33950 | 28652 ft | 474 kts | 194° |
| 2026-04-15 09:41 | 48.72019 | 8.32768 | 28939 ft | 478 kts | 195° |
| 2026-04-15 09:42 | 48.68766 | 8.31561 | 29227 ft | 481 kts | 195° |
| 2026-04-15 09:42 | 48.65513 | 8.30346 | 29506 ft | 484 kts | 195° |
| 2026-04-15 09:42 | 48.62237 | 8.29130 | 29792 ft | 486 kts | 195° |
| 2026-04-15 09:42 | 48.58935 | 8.27917 | 30067 ft | 489 kts | 195° |
| 2026-04-15 09:43 | 48.55622 | 8.26710 | 30320 ft | 492 kts | 195° |
| 2026-04-15 09:43 | 48.52277 | 8.25582 | 30520 ft | 495 kts | 191° |
| 2026-04-15 09:43 | 48.48838 | 8.25070 | 30729 ft | 498 kts | 182° |
| 2026-04-15 09:43 | 48.45365 | 8.25298 | 30919 ft | 501 kts | 173° |
| 2026-04-15 09:44 | 48.41928 | 8.26106 | 31156 ft | 501 kts | 171° |
| 2026-04-15 09:44 | 48.38485 | 8.26952 | 31419 ft | 501 kts | 171° |
| 2026-04-15 09:44 | 48.35045 | 8.27787 | 31692 ft | 501 kts | 171° |
| 2026-04-15 09:44 | 48.31601 | 8.28618 | 31952 ft | 501 kts | 171° |
| 2026-04-15 09:45 | 48.28155 | 8.29448 | 32217 ft | 502 kts | 171° |
| 2026-04-15 09:45 | 48.24707 | 8.30276 | 32503 ft | 502 kts | 171° |
| 2026-04-15 09:45 | 48.21215 | 8.31111 | 32792 ft | 502 kts | 171° |
| 2026-04-15 09:45 | 48.17808 | 8.31924 | 33072 ft | 502 kts | 171° |
| 2026-04-15 09:46 | 48.14319 | 8.32759 | 33359 ft | 502 kts | 171° |
| 2026-04-15 09:46 | 48.10871 | 8.33594 | 33623 ft | 502 kts | 170° |
| 2026-04-15 09:46 | 48.07420 | 8.34434 | 33904 ft | 502 kts | 170° |
| 2026-04-15 09:46 | 48.03966 | 8.35276 | 34180 ft | 502 kts | 170° |
| 2026-04-15 09:47 | 48.00481 | 8.36124 | 34436 ft | 502 kts | 170° |
| 2026-04-15 09:47 | 47.97041 | 8.36957 | 34698 ft | 501 kts | 170° |
| 2026-04-15 09:47 | 47.93593 | 8.37788 | 34966 ft | 500 kts | 170° |
| 2026-04-15 09:47 | 47.90162 | 8.38612 | 35208 ft | 500 kts | 170° |
| 2026-04-15 09:48 | 47.86729 | 8.39434 | 35451 ft | 499 kts | 170° |
| 2026-04-15 09:48 | 47.83297 | 8.40260 | 35695 ft | 499 kts | 170° |
| 2026-04-15 09:48 | 47.79877 | 8.41088 | 35937 ft | 498 kts | 170° |
| 2026-04-15 09:48 | 47.76470 | 8.41909 | 36164 ft | 497 kts | 170° |
| 2026-04-15 09:49 | 47.73059 | 8.42727 | 36398 ft | 497 kts | 170° |
| 2026-04-15 09:49 | 47.69632 | 8.43547 | 36573 ft | 497 kts | 169° |
| 2026-04-15 09:49 | 47.66205 | 8.44283 | 36747 ft | 499 kts | 172° |
| 2026-04-15 09:49 | 47.62705 | 8.44873 | 36936 ft | 499 kts | 173° |
| 2026-04-15 09:50 | 47.59299 | 8.45335 | 37138 ft | 499 kts | 174° |
| 2026-04-15 09:50 | 47.55842 | 8.45754 | 37236 ft | 499 kts | 174° |
| 2026-04-15 09:50 | 47.48937 | 8.46617 | 37241 ft | 498 kts | 174° |
| 2026-04-15 09:51 | 47.42034 | 8.47606 | 37250 ft | 498 kts | 173° |
| 2026-04-15 09:51 | 47.35142 | 8.48656 | 37249 ft | 498 kts | 173° |
| 2026-04-15 09:52 | 47.28246 | 8.49687 | 37241 ft | 498 kts | 173° |
| 2026-04-15 09:52 | 47.21346 | 8.50686 | 37238 ft | 498 kts | 173° |
| 2026-04-15 09:53 | 47.14448 | 8.51685 | 37240 ft | 498 kts | 173° |
| 2026-04-15 09:53 | 47.07545 | 8.52680 | 37235 ft | 499 kts | 173° |
| 2026-04-15 09:54 | 47.00591 | 8.53686 | 37234 ft | 499 kts | 173° |
| 2026-04-15 09:54 | 46.94809 | 8.54530 | 37218 ft | 499 kts | 173° |
| 2026-04-15 09:55 | 46.91219 | 8.54917 | 37134 ft | 501 kts | 185° |
| 2026-04-15 09:55 | 46.87694 | 8.54323 | 37529 ft | 475 kts | 181° |
| 2026-04-15 09:55 | 46.84404 | 8.54198 | 38229 ft | 469 kts | 181° |
| 2026-04-15 09:55 | 46.81202 | 8.54335 | 39053 ft | 445 kts | 170° |
| 2026-04-15 09:56 | 46.78170 | 8.55184 | 39286 ft | 448 kts | 163° |
| 2026-04-15 09:56 | 46.75092 | 8.56385 | 39205 ft | 457 kts | 162° |
| 2026-04-15 09:56 | 46.68803 | 8.58481 | 38965 ft | 476 kts | 169° |
| 2026-04-15 09:57 | 46.65449 | 8.59162 | 38730 ft | 486 kts | 172° |
| 2026-04-15 09:57 | 46.62053 | 8.59617 | 38453 ft | 492 kts | 174° |
| 2026-04-15 09:57 | 46.58631 | 8.59957 | 38118 ft | 495 kts | 175° |
| 2026-04-15 09:57 | 46.55188 | 8.60280 | 37760 ft | 496 kts | 174° |
| 2026-04-15 09:58 | 46.51745 | 8.60647 | 37576 ft | 497 kts | 174° |
| 2026-04-15 09:58 | 46.44805 | 8.61573 | 37469 ft | 498 kts | 173° |
| 2026-04-15 09:59 | 46.37952 | 8.62608 | 37340 ft | 499 kts | 172° |
| 2026-04-15 09:59 | 46.34495 | 8.63126 | 37117 ft | 499 kts | 172° |
| 2026-04-15 09:59 | 46.31042 | 8.63628 | 37184 ft | 499 kts | 172° |
| 2026-04-15 10:00 | 46.24097 | 8.64597 | 37169 ft | 500 kts | 173° |
| 2026-04-15 10:00 | 46.17198 | 8.65538 | 37165 ft | 500 kts | 172° |
| 2026-04-15 10:01 | 46.10263 | 8.66229 | 37169 ft | 501 kts | 181° |
| 2026-04-15 10:01 | 46.03330 | 8.65035 | 37175 ft | 502 kts | 188° |
| 2026-04-15 10:02 | 45.96410 | 8.63607 | 37171 ft | 503 kts | 188° |
| 2026-04-15 10:02 | 45.89466 | 8.62196 | 37180 ft | 503 kts | 187° |
| 2026-04-15 10:03 | 45.82497 | 8.60782 | 37175 ft | 503 kts | 187° |
| 2026-04-15 10:03 | 45.75554 | 8.59382 | 37180 ft | 504 kts | 187° |
| 2026-04-15 10:04 | 45.68621 | 8.57982 | 37195 ft | 504 kts | 187° |
| 2026-04-15 10:04 | 45.61599 | 8.56561 | 37208 ft | 504 kts | 187° |
| 2026-04-15 10:05 | 45.54714 | 8.55174 | 37202 ft | 504 kts | 187° |
| 2026-04-15 10:05 | 45.47783 | 8.53784 | 36259 ft | 505 kts | 187° |
| 2026-04-15 10:05 | 45.44293 | 8.53083 | 36017 ft | 502 kts | 187° |
| 2026-04-15 10:06 | 45.40870 | 8.52396 | 36196 ft | 493 kts | 187° |
| 2026-04-15 10:06 | 45.34024 | 8.51025 | 36183 ft | 502 kts | 187° |
| 2026-04-15 10:07 | 45.27025 | 8.49636 | 36177 ft | 513 kts | 187° |
| 2026-04-15 10:07 | 45.19896 | 8.48221 | 36170 ft | 521 kts | 187° |
| 2026-04-15 10:08 | 45.12674 | 8.46781 | 36169 ft | 526 kts | 187° |
| 2026-04-15 10:08 | 45.05417 | 8.45342 | 36161 ft | 529 kts | 186° |
| 2026-04-15 10:09 | 44.98120 | 8.43904 | 36138 ft | 527 kts | 187° |
| 2026-04-15 10:09 | 44.94507 | 8.43193 | 35545 ft | 522 kts | 186° |
| 2026-04-15 10:09 | 44.90926 | 8.42492 | 34770 ft | 521 kts | 186° |
| 2026-04-15 10:09 | 44.87325 | 8.41790 | 33884 ft | 523 kts | 186° |
| 2026-04-15 10:10 | 44.83711 | 8.41083 | 32879 ft | 525 kts | 186° |
| 2026-04-15 10:10 | 44.80099 | 8.40376 | 31923 ft | 525 kts | 186° |
| 2026-04-15 10:10 | 44.76480 | 8.39667 | 30978 ft | 525 kts | 186° |
| 2026-04-15 10:10 | 44.72860 | 8.38956 | 30013 ft | 524 kts | 186° |
| 2026-04-15 10:11 | 44.69249 | 8.38247 | 28912 ft | 522 kts | 186° |
| 2026-04-15 10:11 | 44.65672 | 8.37551 | 27998 ft | 515 kts | 186° |
| 2026-04-15 10:11 | 44.62156 | 8.36868 | 27259 ft | 506 kts | 186° |
| 2026-04-15 10:11 | 44.58701 | 8.36193 | 26563 ft | 497 kts | 187° |
| 2026-04-15 10:12 | 44.55312 | 8.35531 | 25911 ft | 487 kts | 187° |
| 2026-04-15 10:12 | 44.51970 | 8.34881 | 25255 ft | 478 kts | 187° |
| 2026-04-15 10:12 | 44.48723 | 8.34249 | 24639 ft | 470 kts | 187° |
| 2026-04-15 10:12 | 44.45506 | 8.33626 | 23962 ft | 464 kts | 187° |
| 2026-04-15 10:13 | 44.42291 | 8.33005 | 23276 ft | 457 kts | 187° |
| 2026-04-15 10:13 | 44.39117 | 8.32393 | 22560 ft | 451 kts | 187° |
| 2026-04-15 10:13 | 44.36892 | 8.31960 | 22052 ft | 448 kts | 188° |
| 2026-04-15 10:13 | 44.33887 | 8.30951 | 21408 ft | 444 kts | 199° |
| 2026-04-15 10:14 | 44.31096 | 8.29159 | 20757 ft | 439 kts | 211° |
| 2026-04-15 10:14 | 44.28606 | 8.26651 | 20069 ft | 435 kts | 222° |
| 2026-04-15 10:14 | 44.26538 | 8.23608 | 19450 ft | 430 kts | 233° |
| 2026-04-15 10:14 | 44.24820 | 8.20223 | 18825 ft | 427 kts | 236° |
| 2026-04-15 10:15 | 44.23137 | 8.16824 | 18257 ft | 423 kts | 237° |
| 2026-04-15 10:15 | 44.21468 | 8.13466 | 17620 ft | 419 kts | 236° |
| 2026-04-15 10:15 | 44.19810 | 8.10139 | 16968 ft | 417 kts | 236° |
| 2026-04-15 10:15 | 44.18158 | 8.06831 | 16412 ft | 413 kts | 236° |
| 2026-04-15 10:16 | 44.16525 | 8.03567 | 15845 ft | 409 kts | 236° |
| 2026-04-15 10:16 | 44.14901 | 8.00319 | 15255 ft | 406 kts | 236° |
| 2026-04-15 10:16 | 44.13272 | 7.97060 | 14709 ft | 404 kts | 236° |
| 2026-04-15 10:16 | 44.11676 | 7.93866 | 14181 ft | 399 kts | 236° |
| 2026-04-15 10:17 | 44.10095 | 7.90709 | 13555 ft | 396 kts | 236° |
| 2026-04-15 10:17 | 44.08526 | 7.87572 | 12896 ft | 394 kts | 236° |
| 2026-04-15 10:17 | 44.06971 | 7.84471 | 12301 ft | 389 kts | 236° |
| 2026-04-15 10:17 | 44.05439 | 7.81427 | 11867 ft | 381 kts | 236° |
| 2026-04-15 10:18 | 44.03943 | 7.78465 | 11718 ft | 366 kts | 236° |
| 2026-04-15 10:18 | 44.02630 | 7.75862 | 11630 ft | 349 kts | 236° |
| 2026-04-15 10:18 | 44.01373 | 7.73377 | 11569 ft | 334 kts | 236° |
| 2026-04-15 10:18 | 44.00037 | 7.70715 | 11507 ft | 336 kts | 236° |
| 2026-04-15 10:19 | 43.98691 | 7.68033 | 11418 ft | 337 kts | 236° |
| 2026-04-15 10:19 | 43.97344 | 7.65357 | 11348 ft | 338 kts | 236° |
| 2026-04-15 10:19 | 43.95960 | 7.62611 | 11472 ft | 354 kts | 236° |
| 2026-04-15 10:19 | 43.94517 | 7.59749 | 11508 ft | 358 kts | 236° |
| 2026-04-15 10:20 | 43.93092 | 7.56927 | 11510 ft | 357 kts | 236° |
| 2026-04-15 10:20 | 43.91665 | 7.54114 | 11508 ft | 356 kts | 236° |
| 2026-04-15 10:20 | 43.90238 | 7.51305 | 11509 ft | 356 kts | 236° |
| 2026-04-15 10:20 | 43.88811 | 7.48500 | 11505 ft | 355 kts | 236° |
| 2026-04-15 10:21 | 43.87322 | 7.45766 | 11506 ft | 356 kts | 227° |
| 2026-04-15 10:21 | 43.85385 | 7.43670 | 11504 ft | 357 kts | 208° |
| 2026-04-15 10:21 | 43.82996 | 7.42496 | 11506 ft | 357 kts | 189° |
| 2026-04-15 10:21 | 43.80542 | 7.42410 | 11334 ft | 355 kts | 171° |
| 2026-04-15 10:22 | 43.78194 | 7.43400 | 11098 ft | 352 kts | 152° |
| 2026-04-15 10:22 | 43.76193 | 7.45296 | 10914 ft | 348 kts | 139° |
| 2026-04-15 10:22 | 43.74289 | 7.47462 | 11068 ft | 350 kts | 139° |
| 2026-04-15 10:22 | 43.72395 | 7.49588 | 11098 ft | 351 kts | 139° |
| 2026-04-15 10:23 | 43.70504 | 7.51722 | 11088 ft | 351 kts | 137° |
| 2026-04-15 10:23 | 43.68825 | 7.54149 | 11090 ft | 349 kts | 127° |
| 2026-04-15 10:23 | 43.67483 | 7.56929 | 10966 ft | 347 kts | 117° |
| 2026-04-15 10:23 | 43.66525 | 7.59972 | 10739 ft | 344 kts | 107° |
| 2026-04-15 10:24 | 43.65742 | 7.63073 | 10497 ft | 342 kts | 107° |
| 2026-04-15 10:24 | 43.64955 | 7.66168 | 10256 ft | 341 kts | 107° |
| 2026-04-15 10:24 | 43.64167 | 7.69248 | 10025 ft | 335 kts | 108° |
| 2026-04-15 10:24 | 43.63403 | 7.72209 | 9894 ft | 320 kts | 108° |
| 2026-04-15 10:25 | 43.62670 | 7.75039 | 9757 ft | 307 kts | 107° |
| 2026-04-15 10:25 | 43.62468 | 7.75817 | 9722 ft | 303 kts | 107° |
| 2026-04-15 10:25 | 43.62102 | 7.77229 | 9641 ft | 297 kts | 107° |
| 2026-04-15 10:25 | 43.61418 | 7.79870 | 9516 ft | 289 kts | 107° |
| 2026-04-15 10:26 | 43.60746 | 7.82461 | 9389 ft | 287 kts | 107° |
| 2026-04-15 10:26 | 43.60077 | 7.85044 | 9251 ft | 286 kts | 107° |
| 2026-04-15 10:26 | 43.59408 | 7.87626 | 9128 ft | 285 kts | 107° |
| 2026-04-15 10:26 | 43.58742 | 7.90193 | 9002 ft | 284 kts | 107° |
| 2026-04-15 10:27 | 43.58075 | 7.92761 | 8868 ft | 284 kts | 107° |
| 2026-04-15 10:27 | 43.57410 | 7.95326 | 8739 ft | 283 kts | 107° |
| 2026-04-15 10:27 | 43.56666 | 7.97840 | 8619 ft | 284 kts | 115° |
| 2026-04-15 10:27 | 43.55554 | 8.00089 | 8491 ft | 285 kts | 129° |
| 2026-04-15 10:28 | 43.54091 | 8.01935 | 8373 ft | 287 kts | 142° |
| 2026-04-15 10:28 | 43.52347 | 8.03277 | 8246 ft | 288 kts | 156° |
| 2026-04-15 10:28 | 43.50422 | 8.04039 | 8119 ft | 290 kts | 169° |
| 2026-04-15 10:28 | 43.48405 | 8.04174 | 8002 ft | 291 kts | 183° |
| 2026-04-15 10:29 | 43.46414 | 8.03662 | 7867 ft | 292 kts | 197° |
| 2026-04-15 10:29 | 43.44561 | 8.02530 | 7741 ft | 292 kts | 211° |
| 2026-04-15 10:29 | 43.42943 | 8.00841 | 7617 ft | 292 kts | 222° |
| 2026-04-15 10:29 | 43.41423 | 7.98988 | 7493 ft | 292 kts | 221° |
| 2026-04-15 10:30 | 43.40000 | 7.97019 | 7372 ft | 291 kts | 234° |
| 2026-04-15 10:30 | 43.39054 | 7.94577 | 7244 ft | 290 kts | 254° |
| 2026-04-15 10:30 | 43.38707 | 7.91884 | 7120 ft | 286 kts | 273° |
| 2026-04-15 10:30 | 43.38972 | 7.89212 | 6998 ft | 280 kts | 291° |
| 2026-04-15 10:31 | 43.39773 | 7.86814 | 6878 ft | 276 kts | 304° |
| 2026-04-15 10:31 | 43.40723 | 7.84524 | 6751 ft | 275 kts | 303° |
| 2026-04-15 10:31 | 43.41672 | 7.82235 | 6634 ft | 275 kts | 305° |
| 2026-04-15 10:31 | 43.42705 | 7.79992 | 6490 ft | 273 kts | 308° |
| 2026-04-15 10:32 | 43.43776 | 7.77837 | 6380 ft | 272 kts | 309° |
| 2026-04-15 10:32 | 43.44860 | 7.75706 | 6254 ft | 272 kts | 309° |
| 2026-04-15 10:32 | 43.45944 | 7.73573 | 6110 ft | 271 kts | 309° |
| 2026-04-15 10:32 | 43.47020 | 7.71438 | 5997 ft | 271 kts | 308° |
| 2026-04-15 10:33 | 43.48086 | 7.69303 | 5885 ft | 271 kts | 308° |
| 2026-04-15 10:33 | 43.49148 | 7.67166 | 5744 ft | 270 kts | 308° |
| 2026-04-15 10:33 | 43.50206 | 7.65030 | 5600 ft | 270 kts | 308° |
| 2026-04-15 10:33 | 43.51265 | 7.62888 | 5200 ft | 269 kts | 308° |
| 2026-04-15 10:34 | 43.52309 | 7.60770 | 4976 ft | 266 kts | 308° |
| 2026-04-15 10:34 | 43.53338 | 7.58683 | 4956 ft | 254 kts | 307° |
| 2026-04-15 10:34 | 43.54292 | 7.56741 | 4957 ft | 236 kts | 305° |
| 2026-04-15 10:34 | 43.55184 | 7.54927 | 4886 ft | 222 kts | 305° |
| 2026-04-15 10:35 | 43.56048 | 7.53171 | 4678 ft | 219 kts | 305° |
| 2026-04-15 10:35 | 43.56901 | 7.51440 | 4503 ft | 218 kts | 305° |
| 2026-04-15 10:35 | 43.57752 | 7.49711 | 4322 ft | 217 kts | 305° |
| 2026-04-15 10:35 | 43.58605 | 7.47990 | 4151 ft | 217 kts | 305° |
| 2026-04-15 10:36 | 43.59471 | 7.46286 | 3934 ft | 217 kts | 305° |
| 2026-04-15 10:36 | 43.60342 | 7.44587 | 3685 ft | 216 kts | 306° |
| 2026-04-15 10:36 | 43.61212 | 7.42897 | 3439 ft | 216 kts | 305° |
| 2026-04-15 10:36 | 43.62076 | 7.41212 | 3190 ft | 215 kts | 305° |
| 2026-04-15 10:37 | 43.62939 | 7.39524 | 3037 ft | 215 kts | 305° |
| 2026-04-15 10:37 | 43.63798 | 7.37845 | 3007 ft | 215 kts | 305° |
| 2026-04-15 10:37 | 43.64671 | 7.36131 | 3009 ft | 215 kts | 305° |
| 2026-04-15 10:37 | 43.65520 | 7.34460 | 3010 ft | 215 kts | 305° |
| 2026-04-15 10:38 | 43.66392 | 7.32745 | 3010 ft | 215 kts | 304° |
| 2026-04-15 10:38 | 43.67045 | 7.30994 | 2939 ft | 213 kts | 290° |
| 2026-04-15 10:38 | 43.67807 | 7.28988 | 1995 ft | 240 kts | 305° |
| 2026-04-15 10:38 | 43.68419 | 7.27642 | 1958 ft | 228 kts | 291° |
| 2026-04-15 10:39 | 43.68498 | 7.25647 | 1945 ft | 205 kts | 247° |
| 2026-04-15 10:39 | 43.67608 | 7.24262 | 1845 ft | 188 kts | 200° |
| 2026-04-15 10:39 | 43.66335 | 7.24156 | 1484 ft | 188 kts | 159° |
| 2026-04-15 10:39 | 43.65164 | 7.24977 | 1251 ft | 182 kts | 152° |
| 2026-04-15 10:40 | 43.64099 | 7.25759 | 1293 ft | 182 kts | 154° |
| 2026-04-15 10:40 | 43.62891 | 7.26574 | 2220 ft | 184 kts | 147° |
| 2026-04-15 10:40 | 43.61967 | 7.27753 | 3292 ft | 190 kts | 128° |
| 2026-04-15 10:40 | 43.61214 | 7.29452 | 3545 ft | 225 kts | 114° |
| 2026-04-15 10:41 | 43.60713 | 7.31641 | 3906 ft | 256 kts | 100° |
| 2026-04-15 10:41 | 43.60648 | 7.34276 | 4037 ft | 297 kts | 82° |
| 2026-04-15 10:41 | 43.61133 | 7.37184 | 3935 ft | 312 kts | 72° |
| 2026-04-15 10:41 | 43.61929 | 7.39879 | 3683 ft | 297 kts | 60° |
| 2026-04-15 10:42 | 43.63171 | 7.42058 | 3437 ft | 284 kts | 42° |
| 2026-04-15 10:42 | 43.64747 | 7.43581 | 3336 ft | 266 kts | 28° |
| 2026-04-15 10:42 | 43.66372 | 7.44658 | 3337 ft | 247 kts | 22° |
| 2026-04-15 10:42 | 43.67953 | 7.45163 | 3353 ft | 227 kts | 356° |
| 2026-04-15 10:43 | 43.69399 | 7.44494 | 3482 ft | 203 kts | 321° |
| 2026-04-15 10:43 | 43.70245 | 7.43097 | 3401 ft | 193 kts | 297° |
| 2026-04-15 10:43 | 43.70698 | 7.41386 | 3256 ft | 179 kts | 283° |
| 2026-04-15 10:43 | 43.70892 | 7.39779 | 3141 ft | 161 kts | 275° |
| 2026-04-15 10:44 | 43.70955 | 7.38299 | 3008 ft | 144 kts | 273° |
| 2026-04-15 10:44 | 43.71022 | 7.36972 | 2806 ft | 136 kts | 275° |
| 2026-04-15 10:44 | 43.71115 | 7.35674 | 2519 ft | 133 kts | 273° |
| 2026-04-15 10:44 | 43.71113 | 7.34354 | 2236 ft | 139 kts | 265° |
| 2026-04-15 10:45 | 43.71049 | 7.32998 | 2113 ft | 144 kts | 265° |
| 2026-04-15 10:45 | 43.70978 | 7.31621 | 1992 ft | 143 kts | 265° |
| 2026-04-15 10:45 | 43.70929 | 7.30213 | 1750 ft | 144 kts | 265° |
| 2026-04-15 10:45 | 43.70795 | 7.28889 | 1479 ft | 141 kts | 252° |
| 2026-04-15 10:46 | 43.70390 | 7.27638 | 1128 ft | 142 kts | 235° |
| 2026-04-15 10:46 | 43.69780 | 7.26608 | 951 ft | 136 kts | 225° |
| 2026-04-15 10:46 | 43.69125 | 7.25658 | 724 ft | 134 kts | 224° |
| 2026-04-15 10:46 | 43.68469 | 7.24766 | 592 ft | 138 kts | 223° |
| 2026-04-15 10:47 | 43.67777 | 7.23860 | 386 ft | 133 kts | 222° |
| 2026-04-15 10:47 | 43.67107 | 7.23027 | 157 ft | 126 kts | 220° |
| 2026-04-15 10:47 | 43.66661 | 7.22409 | 24 ft | 0 kts | 231° |